Time;durP1;ratioP1;P1;durP2;ratioP2;P2;SDS_P1;SDS_P2;PMS_P1;PMS_P2;Temp;Humidity;BMP_temperature;BMP_pressure;BME280_temperature;BME280_humidity;BME280_pressure;Samples;Min_cycle;Max_cycle;Signal;HPM_P1;HPM_P2
2021/06/23 00:00:38;;;;;;;12.85;7.50;;;15.60;99.90;;;;;;4141528;28;20045;-81
2021/06/23 00:02:39;;;;;;;21.33;6.85;;;15.60;99.90;;;;;;4123688;28;20045;-81
2021/06/23 00:04:41;;;;;;;9.65;6.68;;;15.60;99.90;;;;;;4143354;28;20022;-81
2021/06/23 00:06:42;;;;;;;13.32;6.25;;;15.60;99.90;;;;;;4141970;28;20034;-81
2021/06/23 00:08:42;;;;;;;11.15;6.82;;;15.60;99.90;;;;;;4143263;28;20068;-81
2021/06/23 00:10:43;;;;;;;13.05;6.88;;;15.60;99.90;;;;;;4143294;28;20042;-81
2021/06/23 00:12:45;;;;;;;15.43;8.45;;;15.60;99.90;;;;;;4143769;28;20113;-81
2021/06/23 00:14:48;;;;;;;10.75;6.82;;;15.60;99.90;;;;;;4118929;28;20464;-81
2021/06/23 00:16:49;;;;;;;12.32;7.10;;;15.50;99.90;;;;;;4136607;28;20048;-81
2021/06/23 00:18:49;;;;;;;12.48;6.65;;;15.60;99.90;;;;;;4143426;28;20058;-81
2021/06/23 00:20:53;;;;;;;14.18;7.40;;;15.60;99.90;;;;;;4122298;28;20133;-81
2021/06/23 00:22:53;;;;;;;;;;;15.60;99.90;;;;;;4128412;28;20046;-81
2021/06/23 00:24:54;;;;;;;14.38;6.68;;;15.60;99.90;;;;;;4132912;28;19944;-81
2021/06/23 00:26:55;;;;;;;12.68;7.07;;;15.50;99.90;;;;;;4125133;28;20511;-81
2021/06/23 00:28:55;;;;;;;10.60;6.68;;;15.50;99.90;;;;;;4143888;28;20041;-81
2021/06/23 00:30:58;;;;;;;9.38;6.85;;;15.50;99.90;;;;;;4124096;28;20093;-81
2021/06/23 00:33:06;;;;;;;11.40;6.85;;;15.50;99.90;;;;;;4126004;28;20042;-81
2021/06/23 00:35:08;;;;;;;11.05;6.05;;;15.50;99.90;;;;;;4122547;28;20034;-81
2021/06/23 00:37:10;;;;;;;10.32;6.45;;;15.50;99.90;;;;;;4142040;28;20053;-81
2021/06/23 00:39:11;;;;;;;12.73;6.00;;;15.50;99.90;;;;;;4143196;28;20384;-81
2021/06/23 00:41:17;;;;;;;12.13;6.55;;;15.50;99.90;;;;;;4124621;28;20042;-81
2021/06/23 00:43:18;;;;;;;9.90;6.18;;;15.50;99.90;;;;;;4141188;28;20041;-81
2021/06/23 00:45:29;;;;;;;12.55;5.80;;;15.50;99.90;;;;;;4124681;28;20490;-81
2021/06/23 00:47:30;;;;;;;11.98;6.30;;;15.50;99.90;;;;;;4143883;28;20044;-81
2021/06/23 00:49:33;;;;;;;15.65;6.10;;;15.50;99.90;;;;;;4126961;28;20034;-81
2021/06/23 00:51:35;;;;;;;9.70;5.97;;;15.50;99.90;;;;;;4145736;28;20045;-81
2021/06/23 00:53:36;;;;;;;10.10;5.55;;;15.50;99.90;;;;;;4143599;28;20068;-81
2021/06/23 00:55:36;;;;;;;7.70;4.88;;;15.50;99.90;;;;;;4127217;28;20117;-81
2021/06/23 00:57:39;;;;;;;12.85;5.90;;;15.50;99.90;;;;;;4127547;28;20431;-81
2021/06/23 00:59:40;;;;;;;;;;;15.50;99.90;;;;;;4138007;28;20034;-81
2021/06/23 01:01:42;;;;;;;13.25;6.25;;;15.50;99.90;;;;;;4137638;28;19914;-81
2021/06/23 01:03:44;;;;;;;8.93;5.45;;;15.50;99.90;;;;;;4142179;28;20556;-81
2021/06/23 01:05:45;;;;;;;10.48;5.32;;;15.50;99.90;;;;;;4142434;28;20037;-81
2021/06/23 01:07:47;;;;;;;12.57;5.88;;;15.50;99.90;;;;;;4124860;28;20150;-81
2021/06/23 01:09:58;;;;;;;9.53;5.40;;;15.50;99.90;;;;;;4142501;28;20509;-81
2021/06/23 01:12:24;;;;;;;8.50;5.32;;;15.50;99.90;;;;;;4141056;28;20033;-81
2021/06/23 01:14:27;;;;;;;17.38;6.35;;;15.50;99.90;;;;;;4142430;28;20041;-81
2021/06/23 01:16:40;;;;;;;7.30;5.43;;;15.50;99.90;;;;;;4123499;28;20499;-81
2021/06/23 01:18:43;;;;;;;9.63;5.90;;;15.50;99.90;;;;;;4125315;28;20089;-81
2021/06/23 01:20:45;;;;;;;11.40;6.00;;;15.50;99.90;;;;;;4142037;28;20042;-81
2021/06/23 01:22:46;;;;;;;14.17;6.47;;;15.50;99.90;;;;;;4137194;28;20030;-81
2021/06/23 01:24:47;;;;;;;9.52;5.47;;;15.50;99.90;;;;;;4134291;28;20512;-81
2021/06/23 01:26:54;;;;;;;11.23;5.78;;;15.40;99.90;;;;;;4141701;28;20038;-82
2021/06/23 01:28:55;;;;;;;12.27;6.57;;;15.40;99.90;;;;;;4138323;28;20172;-82
2021/06/23 01:30:57;;;;;;;10.27;5.95;;;15.40;99.90;;;;;;4141485;28;20042;-82
2021/06/23 01:33:09;;;;;;;13.23;5.75;;;15.30;99.90;;;;;;4122728;28;20049;-81
2021/06/23 01:35:10;;;;;;;9.38;5.35;;;15.30;99.90;;;;;;4125865;28;20537;-82
2021/06/23 01:37:10;;;;;;;12.90;5.63;;;15.30;99.90;;;;;;4139151;28;20034;-82
2021/06/23 01:39:30;;;;;;;10.05;4.95;;;15.30;99.90;;;;;;4124158;28;20031;-82
2021/06/23 01:41:37;;;;;;;9.57;5.25;;;15.30;99.90;;;;;;4140923;28;20045;-82
2021/06/23 01:43:38;;;;;;;11.13;5.80;;;15.30;99.90;;;;;;4123980;28;20035;-82
2021/06/23 01:45:43;;;;;;;10.07;5.72;;;15.30;99.90;;;;;;4125570;28;20045;-82
2021/06/23 01:47:44;;;;;;;11.82;5.85;;;15.30;99.90;;;;;;4143986;28;20061;-82
2021/06/23 01:49:48;;;;;;;12.77;6.15;;;15.30;99.90;;;;;;4125781;28;20026;-82
2021/06/23 01:51:52;;;;;;;10.63;5.50;;;15.30;99.90;;;;;;4142639;28;20119;-82
2021/06/23 01:53:58;;;;;;;12.35;6.88;;;15.20;99.90;;;;;;4140126;28;20160;-82
2021/06/23 01:55:59;;;;;;;10.68;5.68;;;15.20;99.90;;;;;;4124631;28;20038;-82
2021/06/23 01:58:03;;;;;;;10.82;5.65;;;15.20;99.90;;;;;;4131395;28;20826;-82
2021/06/23 02:00:16;;;;;;;9.73;5.57;;;15.20;99.90;;;;;;4142983;28;20104;-82
2021/06/23 02:02:21;;;;;;;8.93;5.97;;;15.20;99.90;;;;;;4141383;28;20061;-81
2021/06/23 02:05:04;;;;;;;11.68;6.40;;;15.20;99.90;;;;;;4127584;28;20122;-81
2021/06/23 02:07:05;;;;;;;8.65;5.80;;;15.10;99.90;;;;;;4104072;28;20097;-81
2021/06/23 02:09:26;;;;;;;9.45;5.68;;;15.10;99.90;;;;;;4127624;28;20696;-81
2021/06/23 02:11:33;;;;;;;11.20;5.90;;;15.10;99.90;;;;;;4124380;28;20038;-81
2021/06/23 02:14:20;;;;;;;11.30;5.75;;;15.10;99.90;;;;;;4138628;28;20061;-81
2021/06/23 02:16:24;;;;;;;9.85;5.75;;;15.10;99.90;;;;;;4142051;28;20117;-81
2021/06/23 02:18:26;;;;;;;9.88;5.70;;;15.10;99.90;;;;;;4127934;28;20046;-81
2021/06/23 02:20:28;;;;;;;9.77;5.53;;;15.10;99.90;;;;;;4143013;28;20045;-81
2021/06/23 02:22:32;;;;;;;9.87;5.20;;;15.10;99.90;;;;;;4127170;28;20038;-81
2021/06/23 02:24:33;;;;;;;9.95;5.93;;;15.10;99.90;;;;;;4128704;28;20635;-81
2021/06/23 02:26:34;;;;;;;10.85;6.20;;;15.10;99.90;;;;;;4143750;28;20042;-81
2021/06/23 02:28:37;;;;;;;10.70;5.75;;;15.10;99.90;;;;;;4141810;28;20525;-81
2021/06/23 02:30:38;;;;;;;7.43;5.40;;;15.10;99.90;;;;;;4142337;28;20046;-81
2021/06/23 02:32:40;;;;;;;8.52;5.63;;;15.10;99.90;;;;;;4146521;28;20092;-81
2021/06/23 02:34:55;;;;;;;8.68;5.05;;;15.00;99.90;;;;;;4128060;28;20066;-81
2021/06/23 02:36:56;;;;;;;9.57;5.78;;;15.10;99.90;;;;;;4143836;28;20034;-81
2021/06/23 02:38:56;;;;;;;10.63;5.72;;;15.10;99.90;;;;;;4126272;28;20034;-81
2021/06/23 02:40:57;;;;;;;9.57;5.45;;;15.10;99.90;;;;;;4144939;28;20030;-81
2021/06/23 02:42:58;;;;;;;9.55;4.93;;;15.10;99.90;;;;;;4145690;28;20034;-81
2021/06/23 02:44:59;;;;;;;11.77;6.32;;;15.10;99.90;;;;;;4125354;28;20061;-81
2021/06/23 02:47:07;;;;;;;15.63;5.43;;;15.10;99.90;;;;;;4124431;28;20039;-81
2021/06/23 02:49:08;;;;;;;10.57;5.43;;;15.10;99.90;;;;;;4123575;28;20050;-81
2021/06/23 02:51:24;;;;;;;11.35;5.70;;;15.10;99.90;;;;;;4143509;28;20080;-81
2021/06/23 02:53:27;;;;;;;11.60;5.95;;;15.10;99.90;;;;;;4137341;28;20038;-81
2021/06/23 02:55:28;;;;;;;9.55;5.70;;;15.10;99.90;;;;;;4127333;28;20038;-81
2021/06/23 02:57:30;;;;;;;9.23;5.07;;;15.10;99.90;;;;;;4130032;28;20037;-81
2021/06/23 02:59:33;;;;;;;8.50;5.40;;;15.10;99.90;;;;;;4140880;28;20083;-81
2021/06/23 03:01:34;;;;;;;10.15;5.82;;;15.10;99.90;;;;;;4144703;28;20116;-81
2021/06/23 03:03:41;;;;;;;8.20;5.07;;;15.10;99.90;;;;;;4128872;28;20038;-81
2021/06/23 03:05:42;;;;;;;11.35;5.55;;;15.10;99.90;;;;;;4127111;28;20399;-81
2021/06/23 03:07:43;;;;;;;10.85;5.55;;;15.10;99.90;;;;;;4142829;28;20042;-81
2021/06/23 03:09:46;;;;;;;9.25;5.65;;;15.10;99.90;;;;;;4128318;28;20038;-81
2021/06/23 03:11:47;;;;;;;8.18;5.45;;;15.10;99.90;;;;;;4128927;28;20034;-81
2021/06/23 03:13:47;;;;;;;10.43;5.10;;;15.10;99.90;;;;;;4138794;28;20084;-81
2021/06/23 03:15:48;;;;;;;8.30;5.60;;;15.10;99.90;;;;;;4138682;28;20034;-81
2021/06/23 03:17:49;;;;;;;10.45;5.72;;;15.10;99.90;;;;;;4129069;28;20085;-81
2021/06/23 03:19:49;;;;;;;9.68;5.90;;;15.00;99.90;;;;;;4138311;28;20132;-81
2021/06/23 03:21:50;;;;;;;8.32;5.22;;;15.00;99.90;;;;;;4143659;28;20053;-81
2021/06/23 03:23:57;;;;;;;9.82;5.05;;;15.10;99.90;;;;;;4145697;28;20117;-81
2021/06/23 03:26:04;;;;;;;9.85;5.75;;;15.10;99.90;;;;;;4125036;28;20082;-81
2021/06/23 03:28:06;;;;;;;7.70;5.43;;;15.10;99.90;;;;;;4125335;28;20049;-81
2021/06/23 03:30:09;;;;;;;7.90;5.18;;;15.10;99.90;;;;;;4127137;28;20691;-81
2021/06/23 03:32:10;;;;;;;10.15;5.63;;;15.10;99.90;;;;;;4141715;28;20038;-81
2021/06/23 03:34:28;;;;;;;9.27;5.53;;;15.10;99.90;;;;;;4144812;28;20053;-81
2021/06/23 03:36:28;;;;;;;9.18;5.60;;;15.00;99.90;;;;;;4142810;28;20030;-81
2021/06/23 03:38:38;;;;;;;7.03;5.05;;;15.10;99.90;;;;;;4144123;28;20038;-81
2021/06/23 03:40:38;;;;;;;8.43;4.93;;;15.10;99.90;;;;;;4141830;28;20113;-81
2021/06/23 03:42:39;;;;;;;11.15;5.93;;;15.00;99.90;;;;;;4124234;28;20042;-81
2021/06/23 03:44:47;;;;;;;8.30;4.85;;;15.10;99.90;;;;;;4138191;28;20084;-81
2021/06/23 03:46:47;;;;;;;6.50;5.03;;;15.10;99.90;;;;;;4125762;28;20108;-81
2021/06/23 03:48:48;;;;;;;10.20;5.65;;;15.10;99.90;;;;;;4134188;28;20034;-81
2021/06/23 03:50:48;;;;;;;9.98;5.35;;;15.20;99.90;;;;;;4143030;28;20069;-81
2021/06/23 03:52:49;;;;;;;11.48;5.20;;;15.10;99.90;;;;;;4141474;28;20041;-81
2021/06/23 03:54:50;;;;;;;7.75;5.38;;;15.20;99.90;;;;;;4128512;28;20031;-81
2021/06/23 03:56:50;;;;;;;10.02;5.43;;;15.10;99.90;;;;;;4144481;28;20107;-81
2021/06/23 03:59:05;;;;;;;11.15;4.90;;;15.20;99.90;;;;;;4126062;28;20122;-81
2021/06/23 04:01:06;;;;;;;10.43;5.40;;;15.20;99.90;;;;;;4143470;28;20038;-81
2021/06/23 04:03:07;;;;;;;8.32;5.25;;;15.20;99.90;;;;;;4143936;28;20048;-81
2021/06/23 04:05:11;;;;;;;12.65;5.88;;;15.20;99.90;;;;;;4126439;28;20037;-81
2021/06/23 04:07:16;;;;;;;10.93;5.30;;;15.20;99.90;;;;;;4127966;28;20041;-81
2021/06/23 04:09:18;;;;;;;11.18;5.38;;;15.20;99.90;;;;;;4142967;28;20130;-81
2021/06/23 04:11:25;;;;;;;9.63;5.68;;;15.20;99.90;;;;;;4123422;28;20050;-82
2021/06/23 04:13:26;;;;;;;9.05;5.07;;;15.20;99.90;;;;;;4143670;28;20034;-81
2021/06/23 04:15:27;;;;;;;8.88;4.88;;;15.20;99.90;;;;;;4142847;28;20100;-81
2021/06/23 04:17:27;;;;;;;9.40;5.60;;;15.20;99.90;;;;;;4127394;28;20045;-81
2021/06/23 04:19:33;;;;;;;10.15;4.90;;;15.20;99.90;;;;;;4143818;28;20096;-81
2021/06/23 04:21:33;;;;;;;10.07;5.28;;;15.20;99.90;;;;;;4139803;28;20030;-81
2021/06/23 04:23:34;;;;;;;9.57;4.97;;;15.20;99.90;;;;;;4143265;28;20038;-81
2021/06/23 04:25:36;;;;;;;10.93;5.03;;;15.20;99.90;;;;;;4142218;28;20038;-81
2021/06/23 04:27:37;;;;;;;9.45;5.22;;;15.20;99.90;;;;;;4125646;28;20043;-81
2021/06/23 04:29:38;;;;;;;12.23;5.15;;;15.20;99.90;;;;;;4143021;28;20124;-81
2021/06/23 04:31:46;;;;;;;12.82;6.00;;;15.20;99.90;;;;;;4124730;28;20104;-81
2021/06/23 04:33:46;;;;;;;11.13;5.50;;;15.20;99.90;;;;;;4142319;28;20065;-81
2021/06/23 04:35:50;;;;;;;11.80;5.65;;;15.20;99.90;;;;;;4127592;28;20034;-81
2021/06/23 04:37:51;;;;;;;9.07;5.68;;;15.20;99.90;;;;;;4141939;28;20553;-81
2021/06/23 04:39:52;;;;;;;13.55;5.60;;;15.20;99.90;;;;;;4121981;28;20026;-81
2021/06/23 04:41:52;;;;;;;8.68;4.88;;;15.30;99.90;;;;;;4142328;28;20054;-81
2021/06/23 04:43:55;;;;;;;12.13;5.30;;;15.20;99.90;;;;;;4143600;28;20160;-81
2021/06/23 04:46:20;;;;;;;9.48;5.45;;;15.20;99.90;;;;;;4124454;28;20038;-81
2021/06/23 04:48:21;;;;;;;10.00;4.55;;;15.30;99.90;;;;;;4122759;28;20078;-81
2021/06/23 04:50:22;;;;;;;9.95;5.43;;;15.20;99.90;;;;;;4142787;28;20038;-81
2021/06/23 04:52:22;;;;;;;9.73;4.65;;;15.30;99.90;;;;;;4144249;28;20034;-81
2021/06/23 04:54:23;;;;;;;6.85;4.50;;;15.20;99.90;;;;;;4143746;28;20042;-77
2021/06/23 04:56:23;;;;;;;10.45;5.13;;;15.30;99.90;;;;;;4140581;28;20087;-77
2021/06/23 04:58:24;;;;;;;12.00;5.43;;;15.30;99.90;;;;;;4142126;28;20042;-77
2021/06/23 05:00:25;;;;;;;8.38;4.65;;;15.30;99.90;;;;;;4135496;28;20038;-77
2021/06/23 05:02:26;;;;;;;8.02;4.65;;;15.40;99.90;;;;;;4140024;28;20368;-77
2021/06/23 05:04:27;;;;;;;10.88;5.32;;;15.30;99.90;;;;;;4142136;28;20096;-78
2021/06/23 05:06:28;;;;;;;11.80;4.88;;;15.30;99.90;;;;;;4123653;28;20065;-78
2021/06/23 05:08:29;;;;;;;10.32;5.00;;;15.30;99.90;;;;;;4143779;28;20040;-78
2021/06/23 05:10:30;;;;;;;6.03;4.07;;;15.30;99.90;;;;;;4144531;28;20050;-77
2021/06/23 05:12:31;;;;;;;10.27;4.88;;;15.40;99.90;;;;;;4149294;28;20733;-78
2021/06/23 05:14:31;;;;;;;10.10;4.60;;;15.30;99.90;;;;;;4142592;28;20486;-78
2021/06/23 05:16:33;;;;;;;8.35;4.55;;;15.40;99.90;;;;;;4146346;28;20414;-77
2021/06/23 05:18:35;;;;;;;7.97;4.38;;;15.30;99.90;;;;;;4141442;28;20426;-78
2021/06/23 05:20:36;;;;;;;11.10;5.00;;;15.40;99.90;;;;;;4132464;28;20041;-78
2021/06/23 05:22:37;;;;;;;9.95;4.82;;;15.30;99.90;;;;;;4136019;28;20049;-78
2021/06/23 05:24:39;;;;;;;13.63;4.63;;;15.30;99.90;;;;;;4140317;28;20092;-78
2021/06/23 05:26:40;;;;;;;9.57;4.53;;;15.30;99.90;;;;;;4147149;28;23823;-78
2021/06/23 05:28:41;;;;;;;13.13;4.90;;;15.30;99.90;;;;;;4147867;28;20041;-77
2021/06/23 05:30:48;;;;;;;10.73;4.13;;;15.30;99.90;;;;;;4131449;28;20112;-78
2021/06/23 05:32:49;;;;;;;8.68;4.53;;;15.30;99.90;;;;;;4144360;28;20054;-78
2021/06/23 05:34:49;;;;;;;9.65;4.20;;;15.40;99.90;;;;;;4148349;28;20076;-78
2021/06/23 05:36:50;;;;;;;9.02;4.43;;;15.40;99.90;;;;;;4125717;28;20037;-78
2021/06/23 05:38:51;;;;;;;9.63;4.00;;;15.40;99.90;;;;;;4149544;28;20091;-78
2021/06/23 05:40:52;;;;;;;12.35;4.30;;;15.40;99.90;;;;;;4148648;28;20405;-78
2021/06/23 05:42:53;;;;;;;10.15;4.25;;;15.40;99.90;;;;;;4145287;28;20155;-78
2021/06/23 05:44:53;;;;;;;12.38;4.18;;;15.40;99.90;;;;;;4148339;28;20038;-78
2021/06/23 05:46:55;;;;;;;9.73;4.18;;;15.30;99.90;;;;;;4149874;28;20117;-78
2021/06/23 05:48:55;;;;;;;10.75;4.15;;;15.40;99.90;;;;;;4147523;28;20518;-78
2021/06/23 05:50:56;;;;;;;11.43;4.50;;;15.40;99.90;;;;;;4143026;28;20048;-78
2021/06/23 05:52:57;;;;;;;13.88;4.03;;;15.40;99.90;;;;;;4147602;28;20030;-78
2021/06/23 05:54:58;;;;;;;10.30;3.97;;;15.40;99.90;;;;;;4148525;28;20037;-78
2021/06/23 05:56:59;;;;;;;7.13;3.75;;;15.40;99.90;;;;;;4149343;28;20026;-78
2021/06/23 05:59:00;;;;;;;8.35;4.05;;;15.40;99.90;;;;;;4145036;28;20128;-78
2021/06/23 06:01:02;;;;;;;9.82;4.00;;;15.40;99.90;;;;;;4144259;28;20026;-78
2021/06/23 06:03:04;;;;;;;13.68;4.20;;;15.40;99.90;;;;;;4128642;28;20101;-78
2021/06/23 06:05:06;;;;;;;6.43;3.70;;;15.40;99.90;;;;;;4143810;28;20041;-78
2021/06/23 06:07:06;;;;;;;8.90;3.45;;;15.40;99.90;;;;;;4144005;28;20038;-78
2021/06/23 06:09:07;;;;;;;9.73;4.03;;;15.40;99.90;;;;;;4149312;28;20046;-78
2021/06/23 06:11:08;;;;;;;9.10;3.90;;;15.40;99.90;;;;;;4129799;28;20039;-78
2021/06/23 06:13:08;;;;;;;15.75;4.25;;;15.40;99.90;;;;;;4144642;28;21232;-78
2021/06/23 06:15:11;;;;;;;9.27;3.70;;;15.40;99.90;;;;;;4141987;28;20100;-78
2021/06/23 06:17:11;;;;;;;10.32;4.13;;;15.40;99.90;;;;;;4143780;28;20042;-78
2021/06/23 06:19:13;;;;;;;9.40;3.78;;;15.40;99.90;;;;;;4145495;28;20042;-78
2021/06/23 06:21:16;;;;;;;9.00;3.92;;;15.50;99.90;;;;;;4147896;28;20095;-78
2021/06/23 06:23:18;;;;;;;6.95;3.70;;;15.50;99.90;;;;;;4146420;28;20049;-78
2021/06/23 06:25:20;;;;;;;8.18;3.38;;;15.50;99.90;;;;;;4149944;28;20497;-78
2021/06/23 06:27:21;;;;;;;7.13;3.20;;;15.50;99.90;;;;;;4144906;28;20041;-78
2021/06/23 06:29:22;;;;;;;9.77;3.90;;;15.50;99.90;;;;;;4147247;28;20188;-78
2021/06/23 06:31:23;;;;;;;8.25;3.60;;;15.50;99.90;;;;;;4145884;28;20064;-78
2021/06/23 06:33:24;;;;;;;9.18;3.58;;;15.60;99.90;;;;;;4147936;28;20133;-78
2021/06/23 06:35:25;;;;;;;7.28;3.25;;;15.60;99.90;;;;;;4142662;28;20092;-78
2021/06/23 06:37:26;;;;;;;8.60;3.80;;;15.60;99.90;;;;;;4147957;28;20053;-78
2021/06/23 06:39:26;;;;;;;9.27;4.53;;;15.70;99.90;;;;;;4148628;28;20049;-78
2021/06/23 06:41:27;;;;;;;5.70;3.30;;;15.70;99.90;;;;;;4145182;28;20196;-78
2021/06/23 06:43:27;;;;;;;8.18;3.42;;;15.70;99.90;;;;;;4145109;28;20061;-78
2021/06/23 06:45:28;;;;;;;8.07;3.20;;;15.70;99.90;;;;;;4148688;28;20053;-78
2021/06/23 06:47:28;;;;;;;7.97;3.35;;;15.70;99.90;;;;;;4128872;28;20129;-78
2021/06/23 06:49:30;;;;;;;8.48;3.20;;;15.80;99.90;;;;;;4131796;28;20041;-78
2021/06/23 06:51:31;;;;;;;12.30;3.28;;;15.80;99.90;;;;;;4144718;28;20037;-78
2021/06/23 06:53:32;;;;;;;5.20;3.40;;;15.80;99.90;;;;;;4129971;28;20042;-79
2021/06/23 06:55:33;;;;;;;8.13;3.50;;;15.80;99.90;;;;;;4146094;28;20038;-78
2021/06/23 06:57:35;;;;;;;11.15;3.97;;;15.80;99.90;;;;;;4147678;28;20111;-78
2021/06/23 06:59:36;;;;;;;8.13;3.53;;;15.80;99.90;;;;;;4143924;28;20033;-78
2021/06/23 07:01:36;;;;;;;11.88;3.95;;;15.80;99.90;;;;;;4146586;28;20041;-78
2021/06/23 07:03:37;;;;;;;5.95;3.53;;;15.80;99.90;;;;;;4144448;28;20033;-78
2021/06/23 07:05:38;;;;;;;9.27;3.22;;;15.70;99.90;;;;;;4146408;28;20100;-78
2021/06/23 07:07:44;;;;;;;8.65;3.30;;;15.80;99.90;;;;;;4127995;28;20089;-78
2021/06/23 07:09:45;;;;;;;14.38;3.75;;;15.80;99.90;;;;;;4146881;28;20048;-78
2021/06/23 07:11:47;;;;;;;10.82;3.33;;;15.80;99.90;;;;;;4145988;28;20498;-78
2021/06/23 07:13:50;;;;;;;8.43;3.65;;;15.80;99.90;;;;;;4148689;28;20034;-78
2021/06/23 07:15:52;;;;;;;;;;;15.80;99.90;;;;;;4131677;28;20053;-79
2021/06/23 07:17:52;;;;;;;9.88;3.20;;;15.80;99.90;;;;;;4130861;28;19925;-78
2021/06/23 07:19:53;;;;;;;7.97;3.38;;;15.90;99.90;;;;;;4151059;28;20770;-79
2021/06/23 07:21:54;;;;;;;7.55;3.22;;;15.90;99.90;;;;;;4148279;28;20144;-78
2021/06/23 07:23:57;;;;;;;7.10;3.58;;;15.90;99.90;;;;;;4148153;28;20065;-78
2021/06/23 07:25:58;;;;;;;6.80;3.22;;;15.90;99.90;;;;;;4144697;28;20049;-79
2021/06/23 07:27:59;;;;;;;11.27;3.78;;;15.90;99.90;;;;;;4147119;28;20037;-78
2021/06/23 07:29:59;;;;;;;5.28;3.03;;;15.90;99.90;;;;;;4146934;28;20056;-78
2021/06/23 07:32:03;;;;;;;10.35;3.58;;;16.00;99.90;;;;;;4147083;28;20645;-78
2021/06/23 07:38:28;;;;;;;9.23;3.28;;;15.90;99.90;;;;;;4148055;28;20129;-78
2021/06/23 07:40:43;;;;;;;11.95;3.45;;;15.90;99.90;;;;;;4143392;28;20046;-78
2021/06/23 07:42:45;;;;;;;8.27;3.15;;;15.90;99.90;;;;;;4147883;28;20087;-78
2021/06/23 07:44:52;;;;;;;9.32;3.95;;;16.00;99.90;;;;;;4146283;28;20038;-78
2021/06/23 07:47:02;;;;;;;8.60;2.97;;;16.00;99.90;;;;;;4145287;28;20045;-78
2021/06/23 07:49:07;;;;;;;9.98;3.65;;;16.00;99.90;;;;;;4146244;28;20595;-78
2021/06/23 07:51:11;;;;;;;9.40;3.58;;;16.10;99.90;;;;;;4129246;28;20030;-78
2021/06/23 08:09:30;;;;;;;5.35;2.95;;;16.10;99.90;;;;;;4147003;28;20073;-77
2021/06/23 08:11:41;;;;;;;8.63;3.10;;;16.10;99.90;;;;;;4144896;28;20057;-78
2021/06/23 08:13:42;;;;;;;7.57;3.10;;;16.20;99.90;;;;;;4143301;28;20050;-78
2021/06/23 08:15:48;;;;;;;7.53;2.88;;;16.20;99.90;;;;;;4129964;28;20036;-78
2021/06/23 08:17:49;;;;;;;8.02;3.47;;;16.20;99.90;;;;;;4142417;28;20057;-79
2021/06/23 08:19:49;;;;;;;7.45;3.28;;;16.30;99.90;;;;;;4144720;28;20142;-78
2021/06/23 08:21:50;;;;;;;8.00;3.00;;;16.30;99.90;;;;;;4146239;28;20109;-78
2021/06/23 08:23:51;;;;;;;7.47;3.38;;;16.40;99.90;;;;;;4148921;28;20041;-78
2021/06/23 08:25:53;;;;;;;11.10;3.17;;;16.40;99.90;;;;;;4143707;28;20052;-78
2021/06/23 08:27:54;;;;;;;6.80;3.38;;;16.40;99.90;;;;;;4146743;28;20795;-78
2021/06/23 08:29:55;;;;;;;8.88;3.13;;;16.40;99.90;;;;;;4149396;28;20389;-78
2021/06/23 08:31:55;;;;;;;5.63;2.80;;;16.40;99.90;;;;;;4144799;28;20037;-78
2021/06/23 08:33:56;;;;;;;8.00;3.38;;;16.40;99.90;;;;;;4145611;28;20663;-78
2021/06/23 08:35:58;;;;;;;5.57;2.63;;;16.40;99.90;;;;;;4146706;28;20062;-78
2021/06/23 08:38:00;;;;;;;9.23;3.10;;;16.40;99.90;;;;;;4149278;28;20030;-78
2021/06/23 08:40:00;;;;;;;8.90;3.03;;;16.50;99.90;;;;;;4145071;28;20035;-78
2021/06/23 08:42:01;;;;;;;8.65;2.92;;;16.50;99.90;;;;;;4142840;28;20092;-78
2021/06/23 08:44:03;;;;;;;7.53;3.55;;;16.50;99.90;;;;;;4146402;28;20029;-78
2021/06/23 08:46:04;;;;;;;9.87;2.97;;;16.50;99.90;;;;;;4146000;28;20038;-78
2021/06/23 08:48:05;;;;;;;6.10;2.47;;;16.50;99.90;;;;;;4123989;28;20152;-78
2021/06/23 08:50:07;;;;;;;8.57;2.85;;;16.60;99.90;;;;;;4145434;28;20100;-79
2021/06/23 08:52:10;;;;;;;7.50;2.72;;;16.60;99.90;;;;;;4125534;28;20398;-78
2021/06/23 08:54:11;;;;;;;6.18;2.92;;;16.60;99.90;;;;;;4131185;28;20045;-79
2021/06/23 08:56:12;;;;;;;6.70;2.63;;;16.60;99.90;;;;;;4126976;28;20089;-78
2021/06/23 08:58:14;;;;;;;8.52;3.00;;;16.70;99.90;;;;;;4145989;28;20041;-79
2021/06/23 09:00:17;;;;;;;7.97;2.88;;;16.70;99.90;;;;;;4143082;28;20034;-78
2021/06/23 09:02:18;;;;;;;8.55;3.03;;;16.70;99.90;;;;;;4141179;28;20510;-79
2021/06/23 09:04:24;;;;;;;10.07;3.22;;;16.70;99.90;;;;;;4145724;28;20125;-78
2021/06/23 09:06:47;;;;;;;6.55;2.85;;;16.70;99.90;;;;;;4144551;28;20042;-77
2021/06/23 09:08:48;;;;;;;8.80;2.83;;;16.70;99.90;;;;;;4141938;28;20072;-78
2021/06/23 09:10:49;;;;;;;10.27;2.90;;;16.70;99.90;;;;;;4142407;28;20042;-78
2021/06/23 09:13:08;;;;;;;5.90;2.60;;;16.70;99.90;;;;;;4147498;28;20053;-78
2021/06/23 09:15:09;;;;;;;9.27;2.78;;;16.80;99.90;;;;;;4125846;28;20037;-78
2021/06/23 09:17:14;;;;;;;7.68;2.30;;;16.80;99.90;;;;;;4142827;28;20037;-78
2021/06/23 09:19:30;;;;;;;4.20;2.35;;;16.80;99.90;;;;;;4147900;28;20042;-78
2021/06/23 09:21:30;;;;;;;7.03;2.75;;;16.80;99.90;;;;;;4142934;28;20078;-78
2021/06/23 09:23:47;;;;;;;10.38;2.88;;;16.80;99.90;;;;;;4145378;28;20098;-78
2021/06/23 09:25:48;;;;;;;9.73;3.30;;;16.80;99.90;;;;;;4141980;28;20136;-78
2021/06/23 09:27:50;;;;;;;5.43;2.42;;;16.80;99.90;;;;;;4128268;28;20081;-78
2021/06/23 09:29:51;;;;;;;7.25;2.90;;;16.80;99.90;;;;;;4148408;28;20630;-78
2021/06/23 09:31:55;;;;;;;7.93;2.80;;;16.80;99.90;;;;;;4145060;28;20057;-78
2021/06/23 09:33:58;;;;;;;8.93;3.15;;;16.80;99.90;;;;;;4146090;28;20486;-80
2021/06/23 09:36:04;;;;;;;8.48;3.15;;;16.80;99.90;;;;;;4126782;28;20045;-78
2021/06/23 09:38:04;;;;;;;11.00;3.42;;;16.90;99.90;;;;;;4148272;28;20470;-78
2021/06/23 09:40:22;;;;;;;9.10;3.03;;;16.90;99.90;;;;;;4146614;28;20041;-78
2021/06/23 09:42:32;;;;;;;6.82;2.90;;;17.00;99.90;;;;;;4142751;28;20391;-78
2021/06/23 09:44:33;;;;;;;9.25;3.13;;;17.00;99.90;;;;;;4141954;28;20600;-79
2021/06/23 09:46:40;;;;;;;10.05;2.72;;;17.00;99.90;;;;;;4131716;28;20104;-78
2021/06/23 09:48:41;;;;;;;8.40;2.35;;;17.10;99.90;;;;;;4141836;28;20030;-78
2021/06/23 09:50:42;;;;;;;7.75;3.20;;;17.20;99.90;;;;;;4143089;28;20546;-78
2021/06/23 09:53:12;;;;;;;6.82;2.50;;;17.20;99.90;;;;;;4148317;28;20064;-78
2021/06/23 09:55:12;;;;;;;5.97;2.50;;;17.20;99.90;;;;;;4143480;28;23936;-78
2021/06/23 09:57:14;;;;;;;10.25;3.42;;;17.20;99.90;;;;;;4141296;28;20100;-78
2021/06/23 09:59:33;;;;;;;9.15;3.10;;;17.20;99.90;;;;;;4145611;28;20776;-78
2021/06/23 10:01:38;;;;;;;7.93;3.00;;;17.30;99.90;;;;;;4143778;28;20034;-79
2021/06/23 10:03:56;;;;;;;7.22;2.92;;;17.20;99.90;;;;;;4123480;28;20953;-78
2021/06/23 10:05:58;;;;;;;6.88;2.42;;;17.20;99.90;;;;;;4143215;28;20520;-78
2021/06/23 10:07:58;;;;;;;7.60;2.88;;;17.30;99.90;;;;;;4142819;28;20398;-78
2021/06/23 10:09:59;;;;;;;12.52;3.17;;;17.30;99.90;;;;;;4140157;28;20060;-78
2021/06/23 10:12:01;;;;;;;9.82;3.20;;;17.30;99.90;;;;;;4127490;28;20042;-77
2021/06/23 10:14:02;;;;;;;5.97;2.45;;;17.40;99.90;;;;;;4146291;28;20045;-78
2021/06/23 10:16:03;;;;;;;7.30;2.30;;;17.40;99.90;;;;;;4145710;28;20053;-78
2021/06/23 10:18:05;;;;;;;7.07;2.80;;;17.40;99.90;;;;;;4145671;28;20417;-78
2021/06/23 10:20:07;;;;;;;8.95;3.30;;;17.40;99.90;;;;;;4148616;28;20125;-77
2021/06/23 10:22:08;;;;;;;12.18;2.58;;;17.40;99.90;;;;;;4151429;28;20123;-77
2021/06/23 10:24:11;;;;;;;6.72;2.78;;;17.40;99.90;;;;;;4145241;28;20030;-78
2021/06/23 10:26:12;;;;;;;8.35;3.25;;;17.50;99.90;;;;;;4145821;28;20045;-77
2021/06/23 10:28:18;;;;;;;5.57;2.78;;;17.50;99.90;;;;;;4144855;28;20050;-77
2021/06/23 10:30:26;;;;;;;8.25;2.63;;;17.40;99.90;;;;;;4146275;28;21047;-77
2021/06/23 10:32:27;;;;;;;5.60;2.83;;;17.40;99.90;;;;;;4127558;28;20124;-77
2021/06/23 10:34:29;;;;;;;5.45;2.38;;;17.30;99.90;;;;;;4148486;28;20042;-77
2021/06/23 10:36:30;;;;;;;11.30;3.47;;;17.40;99.90;;;;;;4146368;28;20077;-77
2021/06/23 10:38:31;;;;;;;16.77;3.40;;;17.40;99.90;;;;;;4149015;28;20040;-77
2021/06/23 10:40:32;;;;;;;5.97;2.88;;;17.40;99.90;;;;;;4148788;28;20045;-77
2021/06/23 10:42:34;;;;;;;8.05;3.08;;;17.40;99.90;;;;;;4148158;28;20046;-77
2021/06/23 10:44:47;;;;;;;5.18;2.65;;;17.40;99.90;;;;;;4146526;28;20084;-77
2021/06/23 10:46:58;;;;;;;;;;;17.40;99.90;;;;;;4147461;28;20073;-77
2021/06/23 10:49:00;;;;;;;6.82;3.55;;;17.50;99.90;;;;;;4147447;28;19964;-77
2021/06/23 10:51:01;;;;;;;7.75;2.95;;;17.50;99.90;;;;;;4130123;28;20061;-77
2021/06/23 10:53:03;;;;;;;11.23;3.60;;;17.50;99.90;;;;;;4145806;28;20126;-77
2021/06/23 10:55:24;;;;;;;10.75;2.97;;;17.50;99.90;;;;;;4147192;28;20036;-77
2021/06/23 10:57:30;;;;;;;7.75;2.88;;;17.50;99.90;;;;;;4141139;28;20041;-77
2021/06/23 10:59:36;;;;;;;8.95;3.70;;;17.50;99.90;;;;;;4144657;28;20030;-77